Terminal Aerodrome Forecast
Issued by NWS Bismarck, ND

Home | Current Version | Previous Version | Text Only | Print | Product List | Glossary On
Versions: 1 2 3 4 5 6 7 8 9 10 11 12 13 14 15 16 17 18 19
000
FTUS43 KBIS 270700 AAA
TAFISN
TAF AMD
KISN 270713Z 2707/2806 27008KT P6SM BKN035 OVC045
      TEMPO 2707/2708 FEW045
     FM270800 26005KT P6SM FEW300
     FM271300 25006KT P6SM BKN045 OVC060
     FM272300 30004KT P6SM SCT020 OVC035
     FM280200 03005KT 5SM -SN BR SCT015 OVC025=

USA.gov is the U.S. government's official web portal to all federal, state and local government web resources and services.